Latest Weather Observations for Strathalbyn

IDS60901

Issued at 5:01 am CDT Sunday 25 October 2020 (issued every 10 minutes, with the page automatically refreshed every 10 minutes)

About weather observations | Map of Adelaide area stations | Latest observations for Adelaide area | Other Formats
Station Details ID: 024580 Name: STRATHALBYN RACECOURSE Lat: -35.28 Lon: 138.89 Height: 58.0 m
Data from the previous 72 hours. | See also: Recent months at Strathalbyn
Date/Time
CDT
Temp
°C
App
Temp
°C
Dew
Point
°C
Rel
Hum
%
Delta-T
°C
Wind Press
QNH
hPa
Press
MSL
hPa
Rain since
9am
mm
Dir  Spd
km/h
Gust
km/h
Spd
kts
Gust
kts
25/05:00am 7.6 4.3 4.4 80 1.4 SSE 11 22 6 12 1021.0 1020.9 0.4
25/04:30am 7.6 5.1 4.9 83 1.2 SW 7 9 4 5 1020.5 1020.4 0.4
25/04:00am 8.5 5.5 5.8 83 1.2 SSE 11 13 6 7 1020.3 1020.2 0.4
25/03:30am 8.4 5.8 6.0 85 1.1 S 9 11 5 6 1020.1 1020.0 0.4
25/03:00am 8.9 5.6 6.3 84 1.2 SSW 13 17 7 9 1020.0 1019.9 0.4
25/02:30am 8.4 5.6 5.2 80 1.4 WSW 9 11 5 6 1019.5 1019.5 0.0
25/02:00am 8.6 5.4 5.2 79 1.5 SW 11 13 6 7 1019.7 1019.7 0.0
25/01:30am 9.4 6.0 5.8 78 1.6 S 13 20 7 11 1019.7 1019.7 0.0
25/01:00am 9.6 7.0 6.1 79 1.6 SW 9 15 5 8 1019.6 1019.6 0.0
25/12:30am 9.6 6.6 6.0 78 1.7 SSW 11 17 6 9 1019.4 1019.4 0.0
25/12:00am 9.4 5.6 5.6 77 1.7 S 15 20 8 11 1019.2 1019.2 0.0
 
Date/Time
CDT
Temp
°C
App
Temp
°C
Dew
Point
°C
Rel
Hum
%
Delta-T
°C
Wind Press
QNH
hPa
Press
MSL
hPa
Rain since
9am
mm
Dir  Spd
km/h
Gust
km/h
Spd
kts
Gust
kts
24/11:35pm 10.0 5.9 6.3 78 1.7 S 17 39 9 21 1019.3 1019.3 0.0
24/11:30pm 9.3 6.2 5.5 77 1.7 SSW 11 13 6 7 1019.2 1019.2 0.0
24/11:00pm 9.6 6.4 5.0 73 2.1 SSW 11 13 6 7 1019.1 1019.1 0.0
24/10:30pm 10.0 5.8 4.0 66 2.6 S 15 19 8 10 1019.1 1019.1 0.0
24/10:00pm 10.6 5.5 4.1 64 2.9 S 20 26 11 14 1019.0 1019.0 0.0
24/09:30pm 10.4 6.8 5.2 70 2.4 SSW 13 17 7 9 1019.0 1019.0 0.0
24/09:00pm 11.1 6.6 4.1 62 3.1 S 17 22 9 12 1018.6 1018.6 0.0
24/08:30pm 11.2 6.4 4.9 65 2.9 S 19 28 10 15 1018.3 1018.3 0.0
24/08:00pm 11.3 6.7 3.6 59 3.4 S 17 26 9 14 1018.0 1018.0 0.0
24/07:30pm 11.4 6.2 3.7 59 3.4 S 20 26 11 14 1017.7 1017.7 0.0
24/07:00pm 12.0 6.0 3.3 55 3.9 SSW 24 35 13 19 1017.4 1017.4 0.0
24/06:30pm 12.1 5.6 4.6 60 3.4 S 28 35 15 19 1017.0 1017.0 0.0
24/06:00pm 12.4 5.8 4.1 57 3.7 SSW 28 43 15 23 1016.6 1016.6 0.0
24/05:30pm 13.1 6.0 3.5 52 4.3 S 30 43 16 23 1016.0 1016.0 0.0
24/05:00pm 13.1 5.6 3.5 52 4.3 S 32 44 17 24 1015.7 1015.7 0.0
24/04:30pm 13.4 6.0 3.8 52 4.3 SSW 32 43 17 23 1015.4 1015.4 0.0
24/04:00pm 13.8 6.1 3.6 50 4.6 SSW 33 44 18 24 1015.3 1015.3 0.0
24/03:30pm 13.1 6.6 4.5 56 3.9 S 28 37 15 20 1015.4 1015.4 0.0
24/03:13pm 12.5 5.5 6.1 65 3.0 SSW 32 50 17 27 1015.5 1015.5 0.0
24/03:00pm 13.6 6.4 6.0 60 3.6 SSW 33 50 18 27 1015.4 1015.4 0.0
24/02:30pm 13.3 5.6 5.5 59 3.7 S 35 50 19 27 1015.2 1015.2 0.0
24/02:00pm 13.9 7.4 6.5 61 3.6 SSW 30 43 16 23 1015.3 1015.3 0.0
24/01:30pm 13.3 6.5 7.7 69 2.8 SSW 33 43 18 23 1015.2 1015.2 0.0
24/01:00pm 13.7 6.1 7.7 67 3.0 SSW 37 52 20 28 1014.5 1014.5 0.0
24/12:30pm 14.4 6.9 6.3 58 3.9 S 35 46 19 25 1014.5 1014.5 0.0
24/12:00pm 13.1 7.0 10.6 85 1.3 S 33 46 18 25 1014.7 1014.7 0.0
24/11:30am 12.5 6.1 8.4 76 2.0 SSW 32 46 17 25 1014.4 1014.4 0.0
24/11:00am 13.7 7.1 7.9 68 2.9 S 32 43 17 23 1013.9 1013.9 0.0
24/10:30am 13.9 6.4 6.5 61 3.6 S 35 50 19 27 1013.6 1013.6 0.0
24/10:08am 14.4 8.4 7.0 61 3.6 SSW 28 46 15 25 1013.2 1013.2 0.0
24/10:00am 12.6 7.3 8.5 76 2.0 SSW 26 37 14 20 1013.3 1013.3 0.0
24/09:30am 13.6 7.4 7.8 68 2.9 SSW 30 41 16 22 1013.0 1013.0 0.0
24/09:00am 12.9 7.6 8.4 74 2.2 S 26 37 14 20 1012.7 1012.7 1.2
24/08:30am 12.6 7.3 8.5 76 2.0 S 26 35 14 19 1012.4 1012.4 1.2
24/08:00am 12.5 8.7 9.1 80 1.7 SSW 19 28 10 15 1012.1 1012.1 1.2
24/07:30am 12.1 8.7 7.8 75 2.1 SSW 15 24 8 13 1011.8 1011.8 1.2
24/07:00am 11.4 8.0 7.5 77 1.9 S 15 20 8 11 1011.6 1011.5 1.2
24/06:30am 11.4 7.3 6.3 71 2.4 SSW 17 26 9 14 1011.2 1011.1 1.2
24/06:00am 11.7 6.6 6.2 69 2.6 S 22 30 12 16 1011.0 1010.9 1.2
24/05:30am 11.7 6.1 5.6 66 2.8 S 24 32 13 17 1010.6 1010.5 1.2
24/05:00am 11.5 5.9 5.6 67 2.7 S 24 33 13 18 1010.2 1010.1 1.2
24/04:30am 11.6 4.9 5.7 67 2.8 SSW 30 44 16 24 1010.0 1009.9 1.2
24/04:00am 11.6 6.7 8.3 80 1.6 SSW 24 35 13 19 1009.8 1009.7 1.2
24/03:30am 11.8 6.9 6.9 72 2.4 SSW 22 32 12 17 1009.5 1009.4 1.2
24/03:00am 12.1 6.1 7.0 71 2.5 SSW 28 39 15 21 1009.4 1009.3 1.2
24/02:30am 12.1 7.0 7.6 74 2.2 S 24 32 13 17 1009.4 1009.3 1.2
24/02:00am 12.1 6.2 7.4 73 2.3 S 28 39 15 21 1009.4 1009.3 1.2
24/01:30am 12.2 6.7 7.7 74 2.2 S 26 39 14 21 1009.6 1009.5 1.2
24/01:00am 12.4 6.3 8.1 75 2.1 S 30 41 16 22 1009.6 1009.5 1.2
24/12:30am 12.6 6.1 8.9 78 1.9 SSW 33 46 18 25 1009.1 1009.0 1.2
24/12:00am 12.8 7.0 9.3 79 1.8 SSW 30 39 16 21 1008.9 1008.8 1.2
 
Date/Time
CDT
Temp
°C
App
Temp
°C
Dew
Point
°C
Rel
Hum
%
Delta-T
°C
Wind Press
QNH
hPa
Press
MSL
hPa
Rain since
9am
mm
Dir  Spd
km/h
Gust
km/h
Spd
kts
Gust
kts
23/11:30pm 12.8 7.8 9.4 80 1.7 SSW 26 39 14 21 1009.1 1009.0 1.2
23/11:00pm 13.0 8.1 10.0 82 1.5 SSW 26 39 14 21 1009.0 1008.9 1.2
23/10:30pm 13.1 7.5 10.1 82 1.6 SSW 30 41 16 22 1008.6 1008.5 1.2
23/10:00pm 13.2 8.1 10.7 85 1.3 S 28 37 15 20 1008.4 1008.3 1.2
23/09:30pm 13.2 8.4 10.4 83 1.5 S 26 39 14 21 1008.3 1008.2 1.2
23/09:00pm 13.2 8.1 10.6 84 1.4 SSW 28 37 15 20 1007.6 1007.5 1.2
23/08:30pm 13.2 7.8 10.9 86 1.2 S 30 39 16 21 1007.2 1007.1 1.2
23/08:00pm 13.3 8.8 11.4 88 1.0 SSW 26 37 14 20 1007.1 1007.0 1.2
23/07:30pm 13.3 8.2 12.0 92 0.7 SSW 30 43 16 23 1006.8 1006.7 1.2
23/07:00pm 13.3 8.8 12.5 95 0.4 SSW 28 37 15 20 1006.4 1006.3 1.2
23/06:30pm 13.6 9.5 12.7 94 0.5 SSW 26 37 14 20 1006.5 1006.4 1.2
23/06:00pm 13.8 9.5 13.2 96 0.3 SSW 28 37 15 20 1006.1 1006.0 1.2
23/05:30pm 14.0 10.5 13.4 96 0.3 SSW 24 33 13 18 1005.6 1005.5 1.2
23/05:00pm 14.4 10.7 13.8 96 0.3 SSW 26 35 14 19 1005.1 1005.0 1.2
23/04:30pm 14.6 12.1 14.1 97 0.3 SSW 20 32 11 17 1004.8 1004.7 1.2
23/04:00pm 14.8 11.6 14.3 97 0.3 SSW 24 33 13 18 1004.8 1004.7 1.2
23/03:30pm 15.0 12.6 14.5 97 0.3 SSW 20 30 11 16 1004.8 1004.7 1.2
23/03:00pm 15.0 12.2 14.4 96 0.3 SSW 22 32 12 17 1004.8 1004.7 1.0
23/02:30pm 15.0 12.8 14.4 96 0.3 S 19 28 10 15 1005.4 1005.3 0.8
23/02:00pm 15.2 11.8 13.7 91 0.8 SSW 24 32 13 17 1005.4 1005.3 0.4
23/01:30pm 16.1 12.9 13.0 82 1.7 SSW 22 30 12 16 1005.4 1005.3 0.0
23/01:00pm 16.9 13.0 13.2 79 2.1 SSW 26 41 14 22 1004.9 1004.8 0.0
23/12:30pm 17.2 14.1 13.5 79 2.1 SSW 22 30 12 16 1005.0 1004.9 0.0
23/12:00pm 17.1 14.6 13.4 79 2.1 SW 19 24 10 13 1005.3 1005.2 0.0
23/11:30am 16.9 14.7 13.4 80 2.0 SW 17 24 9 13 1005.8 1005.7 0.0
23/11:00am 16.8 15.0 13.3 80 2.0 SW 15 19 8 10 1006.2 1006.1 0.0
23/10:30am 16.8 14.7 13.7 82 1.8 SSW 17 22 9 12 1006.0 1005.9 0.0
23/10:00am 16.5 14.5 14.0 85 1.4 SSW 17 22 9 12 1006.3 1006.2 0.0
23/09:30am 15.7 13.5 13.4 86 1.3 SSW 17 20 9 11 1006.4 1006.3 0.0
23/09:00am 15.5 14.0 14.2 92 0.7 SW 15 20 8 11 1006.8 1006.7 2.6
23/08:30am 15.1 13.6 14.3 95 0.5 SW 15 22 8 12 1006.9 1006.8 2.6
23/08:00am 14.9 13.7 14.1 95 0.5 SSW 13 17 7 9 1006.7 1006.6 2.6
23/07:30am 14.8 13.7 14.2 96 0.3 SW 13 20 7 11 1006.5 1006.4 2.6
23/07:00am 14.5 13.7 13.9 96 0.3 SW 11 15 6 8 1006.1 1006.0 2.6
23/06:30am 14.4 12.4 13.8 96 0.3 SW 17 20 9 11 1005.8 1005.7 2.6
23/06:00am 14.5 12.4 13.5 94 0.6 SW 17 22 9 12 1005.5 1005.4 2.6
23/05:30am 14.6 12.9 12.3 86 1.3 SSW 13 17 7 9 1005.6 1005.5 2.6
23/05:00am 15.1 13.3 12.2 83 1.6 SW 13 17 7 9 1005.6 1005.5 2.6
23/04:30am 14.6 14.0 12.3 86 1.3 SSW 7 11 4 6 1005.3 1005.2 2.6
23/04:00am 15.0 14.6 12.5 85 1.4 W 6 11 3 6 1005.4 1005.3 2.6
23/03:30am 14.1 13.6 12.1 88 1.1 WSW 6 9 3 5 1005.1 1005.0 2.6
23/03:00am 14.4 14.0 12.3 87 1.1 W 6 9 3 5 1005.8 1005.7 2.6
23/02:30am 15.2 15.6 12.5 84 1.5 ENE 2 7 1 4 1006.4 1006.3 2.4
23/02:00am 16.0 15.4 12.2 78 2.1 W 7 9 4 5 1007.8 1007.7 1.6
23/01:30am 16.4 13.9 12.2 76 2.3 WNW 17 20 9 11 1007.8 1007.7 1.0
23/01:00am 15.4 14.0 12.3 82 1.7 NNW 11 15 6 8 1006.9 1006.8 1.0
23/12:30am 15.4 14.1 12.5 83 1.6 NNW 11 15 6 8 1007.0 1006.9 1.0
23/12:00am 15.0 13.4 12.7 86 1.3 N 13 15 7 8 1007.6 1007.5 1.0
 
Date/Time
CDT
Temp
°C
App
Temp
°C
Dew
Point
°C
Rel
Hum
%
Delta-T
°C
Wind Press
QNH
hPa
Press
MSL
hPa
Rain since
9am
mm
Dir  Spd
km/h
Gust
km/h
Spd
kts
Gust
kts
22/11:30pm 14.8 13.2 12.7 87 1.2 NNW 13 13 7 7 1008.1 1008.0 1.0
22/11:00pm 15.0 14.1 12.7 86 1.3 N 9 11 5 6 1008.8 1008.7 1.0
22/10:30pm 15.1 13.8 12.6 85 1.4 NNW 11 13 6 7 1009.6 1009.5 0.8
22/10:00pm 14.8 14.5 12.7 87 1.2 N 6 13 3 7 1009.8 1009.7 0.8
22/09:30pm 15.4 14.9 12.5 83 1.6 N 7 13 4 7 1010.6 1010.5 0.8
22/09:00pm 15.0 13.9 12.1 83 1.6 NW 9 13 5 7 1011.1 1011.0 0.0
22/08:30pm 14.8 14.1 11.9 83 1.6 WSW 7 11 4 6 1009.5 1009.4 0.0
22/08:00pm 14.8 12.9 11.9 83 1.6 SSW 13 17 7 9 1008.8 1008.7 0.0
22/07:30pm 15.6 13.4 12.2 80 1.9 S 15 19 8 10 1008.9 1008.8 0.0
22/07:00pm 16.8 15.6 12.7 77 2.3 SSW 11 13 6 7 1009.7 1009.6 0.0
22/06:30pm 17.8 17.7 13.3 75 2.5 SW 6 9 3 5 1010.1 1010.0 0.0
22/06:00pm 18.4 17.5 12.6 69 3.2 W 9 13 5 7 1010.2 1010.1 0.0
22/05:30pm 18.7 18.1 12.2 66 3.6 SW 7 11 4 6 1010.0 1009.9 0.0
22/05:00pm 19.2 17.8 12.2 64 3.9 S 11 15 6 8 1009.8 1009.7 0.0
22/04:30pm 19.6 18.2 12.1 62 4.2 S 11 15 6 8 1009.8 1009.7 0.0
22/04:00pm 19.5 17.8 12.3 63 4.0 SSW 13 19 7 10 1010.2 1010.1 0.0
22/03:30pm 19.5 17.8 12.5 64 3.9 SSW 13 15 7 8 1010.3 1010.2 0.0
22/03:00pm 19.2 18.0 11.7 62 4.1 S 9 15 5 8 1010.7 1010.6 0.0
22/02:30pm 18.8 17.1 11.1 61 4.2 S 11 15 6 8 1011.3 1011.2 0.0
22/02:00pm 18.9 17.0 11.7 63 4.0 SSW 13 19 7 10 1011.4 1011.3 0.0
22/01:30pm 18.7 17.1 11.5 63 4.0 SSW 11 15 6 8 1011.5 1011.4 0.0
22/01:00pm 18.0 16.9 11.8 67 3.4 S 9 15 5 8 1011.7 1011.6 0.0
22/12:30pm 18.3 17.2 11.8 66 3.6 S 9 15 5 8 1012.0 1012.0 0.0
22/12:00pm 18.0 17.6 11.1 64 3.7 SE 4 9 2 5 1012.5 1012.5 0.0
22/11:30am 17.4 16.8 11.7 69 3.1 ENE 6 11 3 6 1012.8 1012.8 0.0
22/11:00am 15.4 15.0 11.2 76 2.3 ESE 4 9 2 5 1013.3 1013.3 0.0
22/10:30am 14.2 13.4 11.2 82 1.6 SSE 6 9 3 5 1013.7 1013.7 0.0
22/10:00am 13.8 12.8 11.0 83 1.5 S 7 11 4 6 1014.2 1014.2 0.0
22/09:30am 13.6 12.7 10.8 83 1.5 SSE 6 9 3 5 1014.2 1014.2 0.0
22/09:00am 13.0 13.2 10.4 84 1.4 CALM 0 0 0 0 1014.5 1014.5 0.0
22/08:30am 12.7 12.9 10.4 86 1.2 CALM 0 6 0 3 1014.6 1014.6 0.0
22/08:00am 12.3 11.1 10.4 88 1.0 S 7 9 4 5 1014.1 1014.1 0.0
22/07:30am 11.6 11.5 10.8 95 0.4 S 2 9 1 5 1014.4 1014.4 0.0
22/07:00am 10.8 9.5 10.0 95 0.4 W 7 9 4 5 1014.2 1014.2 0.0
22/06:30am 10.2 10.0 9.0 92 0.6 CALM 0 0 0 0 1013.6 1013.6 0.0
22/06:00am 10.5 9.9 8.9 90 0.8 N 2 7 1 4 1013.4 1013.4 0.0
22/05:30am 11.1 10.7 9.7 91 0.7 WSW 2 6 1 3 1013.5 1013.5 0.0

Latest Capital City Observations: Canberra | Sydney | Melbourne | Brisbane | Adelaide | Perth | Hobart | Darwin

Other formats

Comma delimited format used in spreadsheet applications
http://www.bom.gov.au/fwo/IDS60901/IDS60901.94814.axf

JavaScript Object Notation format (JSON) in row-major order
http://www.bom.gov.au/fwo/IDS60901/IDS60901.94814.json

Data quality

Most of these data are generated automatically and are frequently updated. Quality checks on data are not normally performed. It is possible for incorrect values to appear. Refer to information at About Latest Weather Observations and please check the disclaimer before using these data.